Aeroporto :
LOGIN :

Iscrizione | Disclaimer

   EN    FR    IT 

 










Sommario :    VFR   VFR Marginale   IFR   IFR Intensivo   IFR Molto Intensivo
Visibilità : 
Base nubi : 
>= 8 km
>= 3000ft
5 / 8 km
1000 / 3000 ft
1500m / 5 km
500 / 1000 ft
800 / 1500m
200 / 500 ft
< 800m
< 200 ft
Simboli :   Temporali  Nebbia  Neve Forte  Precipitazioni Forti  Vento > 20 kt
SIGMETs :   Varie  Temporali  Ghiacco  Turbolenza  Onda orograficha  Ceneri Vulcaniche






- Altitudine del aeroporto : 140 ft


ESTL - Ljungbyhed

ULTIMO METAR :
  • 110620Z AUTO 19014KT 4500 RA FEW006/// SCT010/// 04/04 Q1005

METARs OBSOLETI :
  • 110550Z AUTO 19014G24KT 3600 -RA FEW006/// SCT008/// BKN009/// 04/04 Q1006
  • 110520Z AUTO 18015G26KT 4000 -RA FEW007/// SCT009/// BKN010/// 04/03 Q1006
  • 110450Z AUTO 18015KT 3900 -RA FEW007/// SCT008/// BKN011/// 03/03 Q1006
  • 110420Z AUTO 19016KT 3400 -RA FEW007/// SCT009/// BKN012/// 03/03 Q1006
  • 110350Z AUTO 19015KT 3900 -RA FEW013/// 03/03 Q1006

Previsioni scadute.



MetMap, La meteo Aeronautica in un colpo d'occhio ! - Copyright ORBIFLY Dicembre 2007 - Disclaimer

ORBIFLY MET'MAP TEAM :

Programmazione e sviluppo : Alexandra Zaïnal
Concezione : Baudouin d'Aumeries
Aiuto per la programmazione : Marc-Olivier Méhu
Supporto tecnico e logistico : Manuel Goepfert
Aiuto per la traduzione : Arnaldo La Scala

Contatto : metmap@orbifly.com




FONTI E CREDITI :

   NOAA